New Haven, Kentucky
Current Conditions -  °F | °C
As of 11:15 PM on Sunday 23 Nov 2014 (Local Time) from K6I2 Reporting Station
Haze Haze  
Wind Chill: 15°   Ceiling: 1600
Heat Index: 15°   Visibility: 2mi
Dew Point: 14°   Wind: 28mph
Humidity: 94%   Direction: 200°SSW
Pressure: 29.36"   Gusts: 35mph
Location:  37.66°N, 85.59°W
Report Text: K6I2 240415Z AUTO 20024G30KT 2SM BR SCT010 OVC016 15/14 A2936 RMK AO2
Loading
Personal Weather Stations






























Interactive Weather Map New forecast layout! Learn more

10-Day Weather Forecast

Advertisements
Track Severe Weather on mobile